createdAt,value
2022-12-15T00:00:19.535Z,2.67
2022-12-15T00:03:05.385Z,2.68
2022-12-15T00:05:53.581Z,2.39
2022-12-15T00:08:45.344Z,2.41
2022-12-15T00:11:35.758Z,2.61
2022-12-15T00:14:22.651Z,1.56
2022-12-15T00:17:08.333Z,2.74
2022-12-15T00:19:53.995Z,2.70
2022-12-15T00:22:39.678Z,2.87
2022-12-15T00:25:25.801Z,2.75
2022-12-15T00:28:11.339Z,2.54
2022-12-15T00:31:02.093Z,2.42
2022-12-15T00:33:48.382Z,2.73
2022-12-15T00:36:33.891Z,2.53
2022-12-15T00:39:03.902Z,2.52
2022-12-15T00:41:31.449Z,2.59
2022-12-15T00:43:58.555Z,2.75
2022-12-15T00:46:44.198Z,1.88
2022-12-15T00:49:31.352Z,2.32
2022-12-15T00:52:16.937Z,1.46
2022-12-15T00:55:02.565Z,2.34
2022-12-15T00:57:48.419Z,2.22
2022-12-15T01:00:34.057Z,1.87
2022-12-15T01:03:19.982Z,2.14
2022-12-15T01:06:05.548Z,1.72
2022-12-15T01:08:51.272Z,1.62
2022-12-15T01:11:36.983Z,1.60
2022-12-15T01:14:22.714Z,1.45
2022-12-15T01:17:08.625Z,1.45
2022-12-15T01:19:54.309Z,1.51
2022-12-15T01:22:21.433Z,1.45
2022-12-15T01:24:48.832Z,0.49
2022-12-15T01:27:16.113Z,1.66
2022-12-15T01:29:43.412Z,1.28
2022-12-15T01:32:10.682Z,1.42
2022-12-15T01:34:37.798Z,1.27
2022-12-15T01:37:05.216Z,1.03
2022-12-15T01:39:52.398Z,1.32
2022-12-15T01:42:19.716Z,1.00
2022-12-15T01:44:51.122Z,1.25
2022-12-15T01:47:23.036Z,1.51
2022-12-15T01:49:51.030Z,1.59
2022-12-15T01:52:18.925Z,1.69
2022-12-15T01:55:01.470Z,1.27
2022-12-15T01:57:32.896Z,0.99
2022-12-15T02:00:03.065Z,1.81
2022-12-15T02:02:39.979Z,1.69
2022-12-15T02:05:08.877Z,2.00
2022-12-15T02:07:35.996Z,2.14
2022-12-15T02:10:07.502Z,2.29
2022-12-15T02:13:22.371Z,2.00
2022-12-15T02:16:11.080Z,1.67
2022-12-15T02:19:04.122Z,1.59
2022-12-15T02:21:56.792Z,1.23
2022-12-15T02:24:36.158Z,1.71
2022-12-15T02:27:20.475Z,1.70
2022-12-15T02:30:06.325Z,1.76
2022-12-15T02:32:43.657Z,1.30
2022-12-15T02:35:17.437Z,1.89
2022-12-15T02:37:45.460Z,1.80
2022-12-15T02:40:17.592Z,1.73
2022-12-15T02:42:58.500Z,1.41
2022-12-15T02:46:04.767Z,1.07
2022-12-15T02:48:59.624Z,1.17
2022-12-15T02:51:26.890Z,1.48
2022-12-15T02:54:28.218Z,1.66
2022-12-15T02:57:30.385Z,1.84
2022-12-15T03:00:11.047Z,1.82
2022-12-15T03:02:46.565Z,1.64
2022-12-15T03:05:15.595Z,1.69
2022-12-15T03:07:43.077Z,1.42
2022-12-15T03:10:13.282Z,1.91
2022-12-15T03:12:40.820Z,1.47
2022-12-15T03:15:08.355Z,1.35
2022-12-15T03:17:35.634Z,1.88
2022-12-15T03:20:03.218Z,1.44
2022-12-15T03:22:30.614Z,1.54
2022-12-15T03:24:58.253Z,1.43
2022-12-15T03:27:25.619Z,1.91
2022-12-15T03:29:52.841Z,2.14
2022-12-15T03:32:20.172Z,2.31
2022-12-15T03:34:47.490Z,2.38
2022-12-15T03:37:14.548Z,2.45
2022-12-15T03:39:41.680Z,2.44
2022-12-15T03:42:08.974Z,2.59
2022-12-15T03:44:36.178Z,2.49
2022-12-15T03:47:04.008Z,1.33
2022-12-15T03:49:31.414Z,1.90
2022-12-15T03:51:58.555Z,1.97
2022-12-15T03:54:25.771Z,1.92
2022-12-15T03:56:53.037Z,1.87
2022-12-15T03:59:20.165Z,2.40
2022-12-15T04:01:49.341Z,2.44
2022-12-15T04:04:16.782Z,2.34
2022-12-15T04:06:43.930Z,2.16
2022-12-15T04:09:11.021Z,1.92
2022-12-15T04:11:38.238Z,2.00
2022-12-15T04:14:05.364Z,1.69
2022-12-15T04:16:32.592Z,1.54
2022-12-15T04:19:18.340Z,1.52
2022-12-15T04:21:45.453Z,1.78
2022-12-15T04:24:31.163Z,1.78
2022-12-15T04:27:16.753Z,1.40
2022-12-15T04:30:02.266Z,1.50
2022-12-15T04:32:49.694Z,1.61
2022-12-15T04:35:35.826Z,2.00
2022-12-15T04:38:21.951Z,2.12
2022-12-15T04:41:07.629Z,2.19
2022-12-15T04:43:53.180Z,2.19
2022-12-15T04:46:39.010Z,2.04
2022-12-15T04:49:24.715Z,1.52
2022-12-15T04:52:10.398Z,1.81
2022-12-15T04:54:55.975Z,2.44
2022-12-15T04:57:41.683Z,2.55
2022-12-15T05:00:27.872Z,2.44
2022-12-15T05:03:18.150Z,2.48
2022-12-15T05:06:04.233Z,2.59
2022-12-15T05:08:50.403Z,2.22
2022-12-15T05:11:37.111Z,2.56
2022-12-15T05:14:23.656Z,2.30
2022-12-15T05:17:09.304Z,2.54
2022-12-15T05:19:54.938Z,2.63
2022-12-15T05:22:40.786Z,2.58
2022-12-15T05:25:26.992Z,2.59
2022-12-15T05:28:13.062Z,2.68
2022-12-15T05:30:58.716Z,2.46
2022-12-15T05:33:26.508Z,2.12
2022-12-15T05:35:58.331Z,2.16
2022-12-15T05:38:25.815Z,2.07
2022-12-15T05:40:53.014Z,2.73
2022-12-15T05:43:26.067Z,2.62
2022-12-15T05:45:53.939Z,2.19
2022-12-15T05:48:21.070Z,2.79
2022-12-15T05:50:48.236Z,2.64
2022-12-15T05:53:17.046Z,3.32
2022-12-15T05:55:44.463Z,2.96
2022-12-15T05:58:11.604Z,3.04
2022-12-15T06:00:39.694Z,3.18
2022-12-15T06:03:07.023Z,3.22
2022-12-15T06:05:34.730Z,3.53
2022-12-15T06:08:02.076Z,2.77
2022-12-15T06:10:29.374Z,2.58
2022-12-15T06:12:56.610Z,3.41
2022-12-15T06:15:24.090Z,3.38
2022-12-15T06:17:53.562Z,3.33
2022-12-15T06:20:20.855Z,2.57
2022-12-15T06:22:50.087Z,3.18
2022-12-15T06:25:17.992Z,3.21
2022-12-15T06:27:45.333Z,2.39
2022-12-15T06:30:13.202Z,3.30
2022-12-15T06:32:40.455Z,3.48
2022-12-15T06:35:08.433Z,3.52
2022-12-15T06:37:35.854Z,3.25
2022-12-15T06:40:03.059Z,3.54
2022-12-15T06:42:30.312Z,3.30
2022-12-15T06:44:57.527Z,3.22
2022-12-15T06:47:25.147Z,3.35
2022-12-15T06:49:52.351Z,3.22
2022-12-15T06:52:20.040Z,3.47
2022-12-15T06:54:47.091Z,3.32
2022-12-15T06:57:14.495Z,3.07
2022-12-15T06:59:41.748Z,3.64
2022-12-15T07:02:17.026Z,3.60
2022-12-15T07:04:44.442Z,3.65
2022-12-15T07:07:11.627Z,3.55
2022-12-15T07:09:39.083Z,3.39
2022-12-15T07:12:07.800Z,3.29
2022-12-15T07:14:37.393Z,3.15
2022-12-15T07:17:04.682Z,3.03
2022-12-15T07:19:31.978Z,2.23
2022-12-15T07:22:00.323Z,3.18
2022-12-15T07:24:27.562Z,2.63
2022-12-15T07:26:55.036Z,3.09
2022-12-15T07:29:23.630Z,2.86
2022-12-15T07:31:51.303Z,2.81
2022-12-15T07:34:18.530Z,2.55
2022-12-15T07:36:51.612Z,3.18
2022-12-15T07:39:19.215Z,2.85
2022-12-15T07:41:46.905Z,3.14
2022-12-15T07:44:19.837Z,2.76
2022-12-15T07:46:49.433Z,2.86
2022-12-15T07:49:18.365Z,3.45
2022-12-15T07:51:45.633Z,3.55
2022-12-15T07:54:14.504Z,3.02
2022-12-15T07:56:42.255Z,3.35
2022-12-15T07:59:10.108Z,3.65
2022-12-15T08:01:37.498Z,3.66
2022-12-15T08:04:05.357Z,3.69
2022-12-15T08:06:33.300Z,3.82
2022-12-15T08:09:00.545Z,3.68
2022-12-15T08:11:28.526Z,3.77
2022-12-15T08:14:04.752Z,3.40
2022-12-15T08:16:35.010Z,3.62
2022-12-15T08:19:03.930Z,3.26
2022-12-15T08:21:32.264Z,3.80
2022-12-15T08:24:01.100Z,3.49
2022-12-15T08:26:31.015Z,3.55
2022-12-15T08:29:32.004Z,3.91
2022-12-15T08:31:51.530Z,3.89
2022-12-15T08:34:18.694Z,3.54
2022-12-15T08:36:45.884Z,3.79
2022-12-15T08:39:12.961Z,3.94
2022-12-15T08:41:41.348Z,3.75
2022-12-15T08:44:08.643Z,3.98
2022-12-15T08:46:40.763Z,3.31
2022-12-15T08:49:08.935Z,3.25
2022-12-15T08:51:37.809Z,4.09
2022-12-15T08:54:05.053Z,4.00
2022-12-15T08:56:32.395Z,4.06
2022-12-15T08:59:02.478Z,4.17
2022-12-15T09:01:33.018Z,4.10
2022-12-15T09:04:01.666Z,4.06
2022-12-15T09:06:31.998Z,4.01
2022-12-15T09:09:02.646Z,3.39
2022-12-15T09:11:31.023Z,3.87
2022-12-15T09:13:58.662Z,4.11
2022-12-15T09:16:33.881Z,3.27
2022-12-15T09:19:01.272Z,4.21
2022-12-15T09:21:30.139Z,4.15
2022-12-15T09:24:01.778Z,4.23
2022-12-15T09:26:34.394Z,3.98
2022-12-15T09:29:04.827Z,3.98
2022-12-15T09:31:36.868Z,3.77
2022-12-15T09:34:04.389Z,3.83
2022-12-15T09:36:35.352Z,4.10
2022-12-15T09:39:03.209Z,4.07
2022-12-15T09:41:33.457Z,4.19
2022-12-15T09:44:21.748Z,4.24
2022-12-15T09:47:07.279Z,4.30
2022-12-15T09:49:38.270Z,4.29
2022-12-15T09:52:14.817Z,3.37
2022-12-15T09:54:44.086Z,3.66
2022-12-15T09:57:36.364Z,4.16
2022-12-15T10:00:13.010Z,4.32
2022-12-15T10:06:29.773Z,3.62
2022-12-15T10:09:04.334Z,4.36
2022-12-15T10:11:55.177Z,4.40
2022-12-15T10:14:27.501Z,4.25
2022-12-15T10:17:17.859Z,4.19
2022-12-15T10:20:07.657Z,4.26
2022-12-15T10:22:37.867Z,4.46
2022-12-15T10:25:27.575Z,4.52
2022-12-15T10:28:27.947Z,4.55
2022-12-15T10:31:13.020Z,3.78
2022-12-15T10:33:47.189Z,4.12
2022-12-15T10:36:16.935Z,4.55
2022-12-15T10:38:50.437Z,4.41
2022-12-15T10:41:20.927Z,4.63
2022-12-15T10:43:50.754Z,4.54
2022-12-15T10:46:29.759Z,4.66
2022-12-15T10:49:00.074Z,4.73
2022-12-15T10:51:51.996Z,5.10
2022-12-15T10:54:19.269Z,5.18
2022-12-15T10:56:52.539Z,5.27
2022-12-15T10:59:22.555Z,5.39
2022-12-15T11:01:50.850Z,5.49
2022-12-15T11:04:29.589Z,4.06
2022-12-15T11:07:02.360Z,5.58
2022-12-15T11:09:34.394Z,5.48
2022-12-15T11:12:20.637Z,5.64
2022-12-15T11:14:51.211Z,5.93
2022-12-15T11:17:23.765Z,5.83
2022-12-15T11:20:02.289Z,5.91
2022-12-15T11:22:47.069Z,5.94
2022-12-15T11:25:36.117Z,5.94
2022-12-15T11:28:11.382Z,5.78
2022-12-15T11:30:45.968Z,6.09
2022-12-15T11:33:13.416Z,6.21
2022-12-15T11:35:46.854Z,6.00
2022-12-15T11:38:40.691Z,6.18
2022-12-15T11:41:40.012Z,6.07
2022-12-15T11:44:27.897Z,6.21
2022-12-15T11:46:55.000Z,6.16
2022-12-15T11:49:45.818Z,6.38
2022-12-15T11:52:44.246Z,6.78
2022-12-15T11:55:35.922Z,6.74
2022-12-15T11:58:21.836Z,7.11
2022-12-15T12:01:13.899Z,6.89
2022-12-15T12:03:54.856Z,7.44
2022-12-15T12:06:32.574Z,7.07
2022-12-15T12:09:24.323Z,6.93
2022-12-15T12:12:12.259Z,6.77
2022-12-15T12:14:50.663Z,6.37
2022-12-15T12:17:18.150Z,6.19
2022-12-15T12:19:50.928Z,6.65
2022-12-15T12:22:27.131Z,7.27
2022-12-15T12:25:02.558Z,7.35
2022-12-15T12:27:54.529Z,7.89
2022-12-15T12:30:26.024Z,7.87
2022-12-15T12:32:56.599Z,7.74
2022-12-15T12:35:56.268Z,8.62
2022-12-15T12:38:31.673Z,8.78
2022-12-15T12:41:11.909Z,8.71
2022-12-15T12:43:44.836Z,8.95
2022-12-15T12:46:43.516Z,7.98
2022-12-15T12:49:22.881Z,7.94
2022-12-15T12:51:58.736Z,8.42
2022-12-15T12:54:40.341Z,8.75
2022-12-15T12:57:13.558Z,9.00
2022-12-15T12:59:58.479Z,8.71
2022-12-15T13:02:26.365Z,8.86
2022-12-15T13:05:24.965Z,8.76
2022-12-15T13:08:07.156Z,9.21
2022-12-15T13:10:36.433Z,9.35
2022-12-15T13:13:35.157Z,9.50
2022-12-15T13:16:26.477Z,9.39
2022-12-15T13:19:04.723Z,9.59
2022-12-15T13:21:44.442Z,9.69
2022-12-15T13:24:33.336Z,9.69
2022-12-15T13:27:09.575Z,9.76
2022-12-15T13:29:54.087Z,9.79
2022-12-15T13:32:33.530Z,9.72
2022-12-15T13:35:25.132Z,9.52
2022-12-15T13:37:59.015Z,9.80
2022-12-15T13:40:36.781Z,9.77
2022-12-15T13:43:03.920Z,9.71
2022-12-15T13:45:36.798Z,9.10
2022-12-15T13:48:38.140Z,9.69
2022-12-15T13:51:27.739Z,9.57
2022-12-15T13:54:12.389Z,9.53
2022-12-15T13:56:55.015Z,9.59
2022-12-15T13:59:53.824Z,9.42
2022-12-15T14:02:36.787Z,9.20
2022-12-15T14:05:19.021Z,9.14
2022-12-15T14:08:11.008Z,9.06
2022-12-15T14:10:43.697Z,8.61
2022-12-15T14:13:30.024Z,8.74
2022-12-15T14:16:20.154Z,8.67
2022-12-15T14:19:18.703Z,8.48
2022-12-15T14:21:54.777Z,8.20
2022-12-15T14:24:38.597Z,8.26
2022-12-15T14:27:07.083Z,7.16
2022-12-15T14:29:34.634Z,7.56
2022-12-15T14:32:02.428Z,7.63
2022-12-15T14:34:39.638Z,7.94
2022-12-15T14:37:21.263Z,7.63
2022-12-15T14:42:38.687Z,7.59
2022-12-15T14:45:06.603Z,7.47
2022-12-15T14:47:36.006Z,7.33
2022-12-15T14:50:04.563Z,7.44
2022-12-15T14:52:42.058Z,7.25
2022-12-15T14:55:21.402Z,7.19
2022-12-15T14:57:52.859Z,7.19
2022-12-15T15:00:36.474Z,7.18
2022-12-15T15:03:09.452Z,7.72
2022-12-15T15:05:57.356Z,7.05
2022-12-15T15:08:46.521Z,7.02
2022-12-15T15:11:35.624Z,6.96
2022-12-15T15:14:12.160Z,6.84
2022-12-15T15:16:40.083Z,6.60
2022-12-15T15:19:07.641Z,6.72
2022-12-15T15:21:37.369Z,6.66
2022-12-15T15:24:11.087Z,6.66
2022-12-15T15:26:40.168Z,6.52
2022-12-15T15:29:44.382Z,6.58
2022-12-15T15:32:17.278Z,6.52
2022-12-15T15:34:45.438Z,6.36
2022-12-15T15:37:23.328Z,6.49
2022-12-15T15:39:55.420Z,6.29
2022-12-15T15:42:26.555Z,6.46
2022-12-15T15:44:54.013Z,6.45
2022-12-15T15:47:27.681Z,6.16
2022-12-15T15:50:00.176Z,6.31
2022-12-15T15:52:29.946Z,5.74
2022-12-15T15:54:57.230Z,5.93
2022-12-15T15:57:24.665Z,5.96
2022-12-15T15:59:52.436Z,5.78
2022-12-15T16:02:19.932Z,6.05
2022-12-15T16:04:47.450Z,5.95
2022-12-15T16:07:27.821Z,5.50
2022-12-15T16:09:56.147Z,5.67
2022-12-15T16:12:41.314Z,5.48
2022-12-15T16:15:16.127Z,5.63
2022-12-15T16:17:43.635Z,5.57
2022-12-15T16:20:13.313Z,4.83
2022-12-15T16:22:42.755Z,5.45
2022-12-15T16:25:48.455Z,5.43
2022-12-15T16:28:23.341Z,5.68
2022-12-15T16:30:51.934Z,5.40
2022-12-15T16:33:20.098Z,5.61
2022-12-15T16:35:49.645Z,5.37
2022-12-15T16:38:28.735Z,4.11
2022-12-15T16:40:57.723Z,5.22
2022-12-15T16:43:28.979Z,5.08
2022-12-15T16:45:57.612Z,5.24
2022-12-15T16:48:25.154Z,5.05
2022-12-15T16:51:01.595Z,5.23
2022-12-15T16:53:35.527Z,5.09
2022-12-15T16:56:13.926Z,5.28
2022-12-15T16:58:41.097Z,4.59
2022-12-15T17:01:11.889Z,4.99
2022-12-15T17:03:39.730Z,5.09
2022-12-15T17:06:08.500Z,5.10
2022-12-15T17:08:42.694Z,5.13
2022-12-15T17:11:20.553Z,5.18
2022-12-15T17:13:51.434Z,5.18
2022-12-15T17:16:21.678Z,5.04
2022-12-15T17:18:49.917Z,4.96
2022-12-15T17:21:21.611Z,5.18
2022-12-15T17:23:55.631Z,5.06
2022-12-15T17:26:30.804Z,5.03
2022-12-15T17:29:27.756Z,4.88
2022-12-15T17:31:55.295Z,4.06
2022-12-15T17:34:25.842Z,4.02
2022-12-15T17:36:53.564Z,3.68
2022-12-15T17:39:22.699Z,3.60
2022-12-15T17:42:06.095Z,3.55
2022-12-15T17:44:37.788Z,3.57
2022-12-15T17:47:08.855Z,3.49
2022-12-15T17:49:38.582Z,2.91
2022-12-15T17:52:19.537Z,3.31
2022-12-15T17:54:46.770Z,1.87
2022-12-15T17:57:13.977Z,2.66
2022-12-15T17:59:41.461Z,2.58
2022-12-15T18:02:13.744Z,2.83
2022-12-15T18:04:42.089Z,2.81
2022-12-15T18:07:27.777Z,2.86
2022-12-15T18:09:55.213Z,1.81
2022-12-15T18:12:25.535Z,2.38
2022-12-15T18:14:53.797Z,2.87
2022-12-15T18:17:21.248Z,2.89
2022-12-15T18:19:49.513Z,2.67
2022-12-15T18:22:23.466Z,2.70
2022-12-15T18:24:53.374Z,1.70
2022-12-15T18:27:27.579Z,1.78
2022-12-15T18:29:57.051Z,2.58
2022-12-15T18:32:27.658Z,1.99
2022-12-15T18:34:56.520Z,2.42
2022-12-15T18:37:28.282Z,2.37
2022-12-15T18:39:58.298Z,2.85
2022-12-15T18:42:31.368Z,3.05
2022-12-15T18:45:00.505Z,3.35
2022-12-15T18:47:28.347Z,3.01
2022-12-15T18:49:56.403Z,3.11
2022-12-15T18:52:28.689Z,2.75
2022-12-15T18:54:57.398Z,2.47
2022-12-15T18:57:37.003Z,2.86
2022-12-15T19:00:10.688Z,2.93
2022-12-15T19:02:38.125Z,2.48
2022-12-15T19:05:06.691Z,2.13
2022-12-15T19:07:36.141Z,2.65
2022-12-15T19:10:03.946Z,1.45
2022-12-15T19:12:31.314Z,2.56
2022-12-15T19:15:01.853Z,1.93
2022-12-15T19:17:47.752Z,2.40
2022-12-15T19:20:39.083Z,2.03
2022-12-15T19:23:07.423Z,1.87
2022-12-15T19:25:35.601Z,2.49
2022-12-15T19:28:02.913Z,1.90
2022-12-15T19:30:41.629Z,3.22
2022-12-15T19:33:11.412Z,3.36
2022-12-15T19:35:41.675Z,3.53
2022-12-15T19:38:19.452Z,3.46
2022-12-15T19:40:48.078Z,2.70
2022-12-15T19:43:17.675Z,3.54
2022-12-15T19:45:45.163Z,3.51
2022-12-15T19:48:12.795Z,2.70
2022-12-15T19:50:42.235Z,3.17
2022-12-15T19:53:28.604Z,3.56
2022-12-15T19:55:59.604Z,3.61
2022-12-15T19:58:35.222Z,3.69
2022-12-15T20:01:08.250Z,3.73
2022-12-15T20:03:36.629Z,3.79
2022-12-15T20:06:06.797Z,3.83
2022-12-15T20:08:37.072Z,3.95
2022-12-15T20:11:05.268Z,3.97
2022-12-15T20:13:33.205Z,3.76
2022-12-15T20:16:00.735Z,4.05
2022-12-15T20:18:28.003Z,3.60
2022-12-15T20:20:55.871Z,4.20
2022-12-15T20:23:26.663Z,3.40
2022-12-15T20:25:56.099Z,4.30
2022-12-15T20:28:30.140Z,4.20
2022-12-15T20:30:58.427Z,4.32
2022-12-15T20:33:25.752Z,4.31
2022-12-15T20:35:53.629Z,4.52
2022-12-15T20:38:32.151Z,4.58
2022-12-15T20:41:01.318Z,4.32
2022-12-15T20:43:32.299Z,4.18
2022-12-15T20:46:33.988Z,4.39
2022-12-15T20:49:03.241Z,4.40
2022-12-15T20:51:33.503Z,4.08
2022-12-15T20:54:02.580Z,4.44
2022-12-15T20:56:29.900Z,4.44
2022-12-15T20:58:59.597Z,4.17
2022-12-15T21:01:35.491Z,4.35
2022-12-15T21:04:27.769Z,4.28
2022-12-15T21:06:55.968Z,4.20
2022-12-15T21:09:24.177Z,3.68
2022-12-15T21:11:54.513Z,4.18
2022-12-15T21:14:24.157Z,4.25
2022-12-15T21:16:51.676Z,4.25
2022-12-15T21:19:20.901Z,4.17
2022-12-15T21:21:51.920Z,3.80
2022-12-15T21:24:23.435Z,4.11
2022-12-15T21:26:51.791Z,4.14
2022-12-15T21:29:22.432Z,3.79
2022-12-15T21:31:50.638Z,4.03
2022-12-15T21:34:21.012Z,4.24
2022-12-15T21:36:52.089Z,4.26
2022-12-15T21:39:33.680Z,4.17
2022-12-15T21:42:06.049Z,4.18
2022-12-15T21:44:33.267Z,4.28
2022-12-15T21:47:00.466Z,4.19
2022-12-15T21:49:27.644Z,4.08
2022-12-15T21:51:58.095Z,4.14
2022-12-15T21:54:36.360Z,3.97
2022-12-15T21:57:03.934Z,3.89
2022-12-15T21:59:33.267Z,3.49
2022-12-15T22:02:24.417Z,3.65
2022-12-15T22:04:55.218Z,3.08
2022-12-15T22:07:22.581Z,3.13
2022-12-15T22:09:55.361Z,3.72
2022-12-15T22:12:24.602Z,3.66
2022-12-15T22:14:52.175Z,3.45
2022-12-15T22:17:21.136Z,2.97
2022-12-15T22:19:48.415Z,3.78
2022-12-15T22:22:16.755Z,3.01
2022-12-15T22:24:44.358Z,3.48
2022-12-15T22:27:22.835Z,3.11
2022-12-15T22:29:50.588Z,3.39
2022-12-15T22:32:18.181Z,3.55
2022-12-15T22:34:45.559Z,3.32
2022-12-15T22:37:12.928Z,3.54
2022-12-15T22:39:40.260Z,3.34
2022-12-15T22:42:08.653Z,3.12
2022-12-15T22:44:38.669Z,3.46
2022-12-15T22:47:06.847Z,3.37
2022-12-15T22:49:39.531Z,3.56
2022-12-15T22:52:16.366Z,3.56
2022-12-15T22:54:45.905Z,3.54
2022-12-15T22:57:23.838Z,3.51
2022-12-15T23:00:00.765Z,3.06
2022-12-15T23:02:31.354Z,3.24
2022-12-15T23:04:58.691Z,3.07
2022-12-15T23:07:26.183Z,3.55
2022-12-15T23:10:13.316Z,3.54
2022-12-15T23:12:40.652Z,3.48
2022-12-15T23:15:27.450Z,2.79
2022-12-15T23:17:55.068Z,3.35
2022-12-15T23:20:22.498Z,3.22
2022-12-15T23:22:49.621Z,3.32
2022-12-15T23:25:16.725Z,3.09
2022-12-15T23:27:43.839Z,3.42
2022-12-15T23:30:12.965Z,3.40
2022-12-15T23:32:40.152Z,3.35
2022-12-15T23:35:07.694Z,3.26
2022-12-15T23:37:35.034Z,3.41
2022-12-15T23:40:02.285Z,3.43
2022-12-15T23:42:29.579Z,3.14
2022-12-15T23:44:56.869Z,3.13
2022-12-15T23:47:24.448Z,3.56
2022-12-15T23:49:51.677Z,3.62
2022-12-15T23:52:19.938Z,3.45
2022-12-15T23:54:47.025Z,3.46
2022-12-15T23:57:14.345Z,3.31
2022-12-15T23:59:41.455Z,2.01
